Time;durP1;ratioP1;P1;durP2;ratioP2;P2;SDS_P1;SDS_P2;PMS_P1;PMS_P2;Temp;Humidity;BMP_temperature;BMP_pressure;BME280_temperature;BME280_humidity;BME280_pressure;Samples;Min_cycle;Max_cycle;Signal;HPM_P1;HPM_P2
2021/09/17 00:01:32;;;;;;;6.47;1.70;;;;;;;;;;4959009;28;20737;-77
2021/09/17 00:03:57;;;;;;;3.73;1.40;;;;;;;;;;4957435;28;21622;-76
2021/09/17 00:06:23;;;;;;;3.30;1.10;;;;;;;;;;4957434;28;20222;-76
2021/09/17 00:08:48;;;;;;;3.80;1.40;;;;;;;;;;4957246;28;20277;-76
2021/09/17 00:11:13;;;;;;;1.20;1.10;;;;;;;;;;4960254;28;20187;-76
2021/09/17 00:13:39;;;;;;;2.30;1.33;;;;;;;;;;4958180;28;20179;-77
2021/09/17 00:16:04;;;;;;;6.93;2.07;;;;;;;;;;4958573;28;22705;-77
2021/09/17 00:18:30;;;;;;;4.43;1.43;;;;;;;;;;4955902;28;20465;-77
2021/09/17 00:20:55;;;;;;;3.70;1.30;;;;;;;;;;4957951;28;20274;-76
2021/09/17 00:23:20;;;;;;;2.33;1.50;;;;;;;;;;4954786;28;20198;-77
2021/09/17 00:25:45;;;;;;;3.20;1.43;;;;;;;;;;4955827;28;20183;-77
2021/09/17 00:28:11;;;;;;;2.20;1.30;;;;;;;;;;4957729;28;20229;-77
2021/09/17 00:30:36;;;;;;;1.87;1.60;;;;;;;;;;4957850;28;20644;-77
2021/09/17 00:33:02;;;;;;;2.80;1.90;;;;;;;;;;4958028;28;20492;-78
2021/09/17 00:35:28;;;;;;;3.17;1.80;;;;;;;;;;4960395;28;20186;-78
2021/09/17 00:37:53;;;;;;;3.63;1.90;;;;;;;;;;4957466;28;20446;-77
2021/09/17 00:40:19;;;;;;;3.07;1.67;;;;;;;;;;4957000;28;20207;-77
2021/09/17 00:42:44;;;;;;;5.03;1.90;;;;;;;;;;4956322;28;20179;-77
2021/09/17 00:45:11;;;;;;;2.20;1.70;;;;;;;;;;4955774;28;20186;-76
2021/09/17 00:47:36;;;;;;;2.73;2.00;;;;;;;;;;4959678;28;20698;-77
2021/09/17 00:50:03;;;;;;;5.13;1.87;;;;;;;;;;4960685;28;20529;-76
2021/09/17 00:52:28;;;;;;;4.00;2.17;;;;;;;;;;4959643;28;20297;-77
2021/09/17 00:54:53;;;;;;;2.23;2.00;;;;;;;;;;4962898;28;20509;-77
2021/09/17 00:57:18;;;;;;;3.60;1.90;;;;;;;;;;4961602;28;20676;-77
2021/09/17 00:59:44;;;;;;;5.50;2.70;;;;;;;;;;4961376;28;20651;-77
2021/09/17 01:02:09;;;;;;;4.40;2.43;;;;;;;;;;4959804;28;20190;-77
2021/09/17 01:04:34;;;;;;;6.33;2.27;;;;;;;;;;4960302;28;20689;-75
2021/09/17 01:06:59;;;;;;;3.67;2.13;;;;;;;;;;4967878;28;20723;-76
2021/09/17 01:09:25;;;;;;;4.63;2.40;;;;;;;;;;4961642;28;20245;-77
2021/09/17 01:11:51;;;;;;;3.43;2.43;;;;;;;;;;4962915;28;20206;-76
2021/09/17 01:14:16;;;;;;;4.10;2.50;;;;;;;;;;4962200;28;20178;-77
2021/09/17 01:16:42;;;;;;;3.53;2.87;;;;;;;;;;4961338;28;20534;-76
2021/09/17 01:19:07;;;;;;;3.03;2.50;;;;;;;;;;4962475;28;20234;-77
2021/09/17 01:21:32;;;;;;;4.03;2.50;;;;;;;;;;4957534;28;20186;-77
2021/09/17 01:23:58;;;;;;;3.90;2.20;;;;;;;;;;4959830;28;20200;-76
2021/09/17 01:26:23;;;;;;;4.70;2.57;;;;;;;;;;4959666;28;20306;-77
2021/09/17 01:28:48;;;;;;;4.20;2.10;;;;;;;;;;4958971;28;20242;-77
2021/09/17 01:31:13;;;;;;;2.60;2.30;;;;;;;;;;4961302;28;20710;-77
2021/09/17 01:33:39;;;;;;;4.67;2.37;;;;;;;;;;4961227;28;20183;-77
2021/09/17 01:36:05;;;;;;;3.43;2.73;;;;;;;;;;4960103;28;20711;-76
2021/09/17 01:38:31;;;;;;;2.40;2.20;;;;;;;;;;4959437;28;20206;-77
2021/09/17 01:40:57;;;;;;;3.30;2.20;;;;;;;;;;4960134;28;20497;-77
2021/09/17 01:43:22;;;;;;;3.80;2.70;;;;;;;;;;4958928;28;20265;-77
2021/09/17 01:45:48;;;;;;;3.40;2.83;;;;;;;;;;4962209;28;20189;-76
2021/09/17 01:48:13;;;;;;;3.90;2.60;;;;;;;;;;4957441;28;20241;-77
2021/09/17 01:50:38;;;;;;;3.90;2.50;;;;;;;;;;4960283;28;20190;-75
2021/09/17 01:53:04;;;;;;;3.90;2.30;;;;;;;;;;4961037;28;20198;-77
2021/09/17 01:55:29;;;;;;;2.87;2.07;;;;;;;;;;4960814;28;20209;-76
2021/09/17 01:57:55;;;;;;;4.50;2.30;;;;;;;;;;4961997;28;20256;-77
2021/09/17 02:00:20;;;;;;;5.03;2.37;;;;;;;;;;4961372;28;21618;-77
2021/09/17 02:02:45;;;;;;;3.27;2.33;;;;;;;;;;4963838;28;20568;-77
2021/09/17 02:05:11;;;;;;;6.80;1.73;;;;;;;;;;4960570;28;20278;-76
2021/09/17 02:07:36;;;;;;;4.57;2.17;;;;;;;;;;4957515;28;20578;-76
2021/09/17 02:10:02;;;;;;;2.33;1.97;;;;;;;;;;4959375;28;20218;-77
2021/09/17 02:12:27;;;;;;;2.60;1.80;;;;;;;;;;4958251;28;20702;-76
2021/09/17 02:14:53;;;;;;;4.27;1.90;;;;;;;;;;4959467;28;20439;-77
2021/09/17 02:17:18;;;;;;;4.57;2.43;;;;;;;;;;4961043;28;20290;-78
2021/09/17 02:19:43;;;;;;;3.37;2.20;;;;;;;;;;4957592;28;20266;-77
2021/09/17 02:22:09;;;;;;;3.00;1.70;;;;;;;;;;4958428;28;20233;-76
2021/09/17 02:24:34;;;;;;;2.73;2.10;;;;;;;;;;4958035;28;20639;-77
2021/09/17 02:26:59;;;;;;;4.47;2.10;;;;;;;;;;4956808;28;20960;-77
2021/09/17 02:29:24;;;;;;;3.03;2.03;;;;;;;;;;4960525;28;20190;-77
2021/09/17 02:31:49;;;;;;;2.50;2.30;;;;;;;;;;4956992;28;20199;-75
2021/09/17 02:34:15;;;;;;;3.47;2.60;;;;;;;;;;4959316;28;20183;-76
2021/09/17 02:36:40;;;;;;;2.17;1.80;;;;;;;;;;4960160;28;20261;-76
2021/09/17 02:39:06;;;;;;;4.50;2.70;;;;;;;;;;4959082;28;20604;-75
2021/09/17 02:41:31;;;;;;;2.33;2.10;;;;;;;;;;4959885;28;20178;-76
2021/09/17 02:43:56;;;;;;;2.70;2.43;;;;;;;;;;4960105;28;20179;-76
2021/09/17 02:46:21;;;;;;;6.50;2.60;;;;;;;;;;4957381;28;21051;-75
2021/09/17 02:48:47;;;;;;;2.73;2.33;;;;;;;;;;4957752;28;20289;-76
2021/09/17 02:51:12;;;;;;;2.90;2.17;;;;;;;;;;4958975;28;20241;-76
2021/09/17 02:53:37;;;;;;;2.83;2.50;;;;;;;;;;4958859;28;20292;-76
2021/09/17 02:56:03;;;;;;;3.80;2.93;;;;;;;;;;4960575;28;20182;-77
2021/09/17 02:58:28;;;;;;;4.90;2.50;;;;;;;;;;4958883;28;20210;-76
2021/09/17 03:00:53;;;;;;;5.20;3.00;;;;;;;;;;4957885;28;20190;-76
2021/09/17 03:03:18;;;;;;;3.73;2.77;;;;;;;;;;4959238;28;20191;-76
2021/09/17 03:05:45;;;;;;;6.07;3.27;;;;;;;;;;4958942;28;20656;-77
2021/09/17 03:08:10;;;;;;;4.63;2.73;;;;;;;;;;4959065;28;20758;-77
2021/09/17 03:10:35;;;;;;;2.43;2.23;;;;;;;;;;4957697;28;20441;-77
2021/09/17 03:13:00;;;;;;;4.10;3.30;;;;;;;;;;4961255;28;20694;-77
2021/09/17 03:15:26;;;;;;;5.07;3.63;;;;;;;;;;4960885;28;20166;-77
2021/09/17 03:17:51;;;;;;;9.50;3.97;;;;;;;;;;4959065;28;20702;-77
2021/09/17 03:20:17;;;;;;;5.20;3.97;;;;;;;;;;4956964;28;20241;-77
2021/09/17 03:22:42;;;;;;;5.03;4.27;;;;;;;;;;4957473;28;20202;-76
2021/09/17 03:25:07;;;;;;;5.43;4.63;;;;;;;;;;4957504;28;24819;-77
2021/09/17 03:27:33;;;;;;;4.73;4.33;;;;;;;;;;4958281;28;20233;-76
2021/09/17 03:29:58;;;;;;;5.20;3.87;;;;;;;;;;4960805;28;20242;-78
2021/09/17 03:32:23;;;;;;;4.93;4.30;;;;;;;;;;4957896;28;20210;-76
2021/09/17 03:34:48;;;;;;;5.90;4.47;;;;;;;;;;4956999;28;21233;-77
2021/09/17 03:37:14;;;;;;;6.37;4.77;;;;;;;;;;4960079;28;20285;-77
2021/09/17 03:39:39;;;;;;;6.33;3.67;;;;;;;;;;4956605;28;20182;-76
2021/09/17 03:42:04;;;;;;;5.33;4.80;;;;;;;;;;4957833;28;20194;-77
2021/09/17 03:44:30;;;;;;;5.20;4.80;;;;;;;;;;4958290;28;20631;-77
2021/09/17 03:46:55;;;;;;;7.57;5.03;;;;;;;;;;4955048;28;20278;-77
2021/09/17 03:49:20;;;;;;;5.70;4.67;;;;;;;;;;4959436;28;20229;-77
2021/09/17 03:51:46;;;;;;;6.33;4.00;;;;;;;;;;4957903;28;20212;-77
2021/09/17 03:54:11;;;;;;;7.23;5.00;;;;;;;;;;4959547;28;20727;-77
2021/09/17 03:56:36;;;;;;;5.20;4.60;;;;;;;;;;4959230;28;21193;-77
2021/09/17 03:59:02;;;;;;;4.90;4.40;;;;;;;;;;4956724;28;20211;-77
2021/09/17 04:01:27;;;;;;;4.80;4.30;;;;;;;;;;4958175;28;20187;-77
2021/09/17 04:03:52;;;;;;;6.73;5.37;;;;;;;;;;4957227;28;20190;-77
2021/09/17 04:06:17;;;;;;;4.70;4.30;;;;;;;;;;4958369;28;20183;-77
2021/09/17 04:08:43;;;;;;;5.87;4.70;;;;;;;;;;4958120;28;20208;-77
2021/09/17 04:11:08;;;;;;;10.00;4.97;;;;;;;;;;4958233;28;20282;-77
2021/09/17 04:13:33;;;;;;;5.30;4.80;;;;;;;;;;4960350;28;20219;-77
2021/09/17 04:15:58;;;;;;;10.57;4.47;;;;;;;;;;4958475;28;20179;-77
2021/09/17 04:18:24;;;;;;;4.40;4.00;;;;;;;;;;4959658;28;20210;-77
2021/09/17 04:20:49;;;;;;;5.77;5.17;;;;;;;;;;4957294;28;20278;-77
2021/09/17 04:23:14;;;;;;;5.20;4.70;;;;;;;;;;4960848;28;20694;-75
2021/09/17 04:25:39;;;;;;;5.00;4.30;;;;;;;;;;4961369;28;20246;-76
2021/09/17 04:28:05;;;;;;;5.83;4.40;;;;;;;;;;4960726;28;20605;-75
2021/09/17 04:30:30;;;;;;;5.33;4.50;;;;;;;;;;4962786;28;20179;-75
2021/09/17 04:32:55;;;;;;;4.77;4.37;;;;;;;;;;4961832;28;20217;-76
2021/09/17 04:35:20;;;;;;;5.50;4.67;;;;;;;;;;4961597;28;20639;-75
2021/09/17 04:37:47;;;;;;;7.17;5.40;;;;;;;;;;4961405;28;20735;-76
2021/09/17 04:40:14;;;;;;;5.10;4.53;;;;;;;;;;4960364;28;20235;-76
2021/09/17 04:42:39;;;;;;;8.17;5.80;;;;;;;;;;4962148;28;20439;-76
2021/09/17 04:45:05;;;;;;;5.23;4.73;;;;;;;;;;4961120;28;20938;-76
2021/09/17 04:47:30;;;;;;;4.77;4.37;;;;;;;;;;4962020;28;20568;-76
2021/09/17 04:49:56;;;;;;;6.60;4.43;;;;;;;;;;4963689;28;20182;-77
2021/09/17 04:52:21;;;;;;;5.30;4.63;;;;;;;;;;4962606;28;20210;-77
2021/09/17 04:54:47;;;;;;;6.63;4.80;;;;;;;;;;4955392;28;20179;-76
2021/09/17 04:57:12;;;;;;;4.00;3.70;;;;;;;;;;4959973;28;20249;-76
2021/09/17 04:59:38;;;;;;;5.93;4.20;;;;;;;;;;4959564;28;20194;-75
2021/09/17 05:02:03;;;;;;;6.10;5.10;;;;;;;;;;4962441;28;20225;-76
2021/09/17 05:04:28;;;;;;;6.20;5.00;;;;;;;;;;4956502;28;20275;-74
2021/09/17 05:06:54;;;;;;;4.50;4.10;;;;;;;;;;4958860;28;20209;-74
2021/09/17 05:09:20;;;;;;;5.43;4.40;;;;;;;;;;4959944;28;20196;-76
2021/09/17 05:11:45;;;;;;;7.83;4.33;;;;;;;;;;4960612;28;20549;-76
2021/09/17 05:14:10;;;;;;;5.23;3.90;;;;;;;;;;4959420;28;20194;-76
2021/09/17 05:16:35;;;;;;;3.83;3.53;;;;;;;;;;4960872;28;20182;-76
2021/09/17 05:19:01;;;;;;;6.20;4.00;;;;;;;;;;4963069;28;20197;-76
2021/09/17 05:21:26;;;;;;;5.33;4.40;;;;;;;;;;4961575;28;20174;-76
2021/09/17 05:23:51;;;;;;;6.33;4.73;;;;;;;;;;4961364;28;20187;-76
2021/09/17 05:26:17;;;;;;;5.53;5.00;;;;;;;;;;4962502;28;20207;-76
2021/09/17 05:28:42;;;;;;;7.90;4.60;;;;;;;;;;4961026;28;20639;-75
2021/09/17 05:31:07;;;;;;;8.33;5.40;;;;;;;;;;4962840;28;20179;-75
2021/09/17 05:33:32;;;;;;;5.30;4.80;;;;;;;;;;4960922;28;20273;-76
2021/09/17 05:35:58;;;;;;;6.20;5.57;;;;;;;;;;4961040;28;20205;-76
2021/09/17 05:38:23;;;;;;;6.90;5.43;;;;;;;;;;4960480;28;20668;-76
2021/09/17 05:40:48;;;;;;;6.80;5.57;;;;;;;;;;4960142;28;20175;-77
2021/09/17 05:43:13;;;;;;;7.50;5.47;;;;;;;;;;4961844;28;20190;-77
2021/09/17 05:45:38;;;;;;;6.90;5.70;;;;;;;;;;4960765;28;20218;-76
2021/09/17 05:48:05;;;;;;;5.93;5.07;;;;;;;;;;4961826;28;20226;-77
2021/09/17 05:50:30;;;;;;;10.43;6.03;;;;;;;;;;4964018;28;20263;-77
2021/09/17 05:52:55;;;;;;;7.93;5.23;;;;;;;;;;4958753;28;20462;-77
2021/09/17 05:55:21;;;;;;;5.20;4.80;;;;;;;;;;4958296;28;20274;-76
2021/09/17 05:57:46;;;;;;;6.30;5.17;;;;;;;;;;4961584;28;20230;-76
2021/09/17 06:00:12;;;;;;;5.30;4.90;;;;;;;;;;4961659;28;20727;-76
2021/09/17 06:02:37;;;;;;;5.60;4.50;;;;;;;;;;4962900;28;20186;-76
2021/09/17 06:05:03;;;;;;;7.50;5.00;;;;;;;;;;4959277;28;20198;-77
2021/09/17 06:07:28;;;;;;;6.03;4.20;;;;;;;;;;4962579;28;20738;-76
2021/09/17 06:09:53;;;;;;;9.27;5.63;;;;;;;;;;4962879;28;20230;-76
2021/09/17 06:12:18;;;;;;;4.63;4.23;;;;;;;;;;4961657;28;20644;-76
2021/09/17 06:14:44;;;;;;;4.80;4.30;;;;;;;;;;4961803;28;20185;-76
2021/09/17 06:17:09;;;;;;;6.63;5.20;;;;;;;;;;4960893;28;20265;-76
2021/09/17 06:19:34;;;;;;;5.90;3.80;;;;;;;;;;4957834;28;20183;-76
2021/09/17 06:21:59;;;;;;;4.23;3.83;;;;;;;;;;4961700;28;20199;-76
2021/09/17 06:24:27;;;;;;;3.77;3.33;;;;;;;;;;4961112;28;20210;-76
2021/09/17 06:26:52;;;;;;;5.47;3.93;;;;;;;;;;4961032;28;20186;-76
2021/09/17 06:29:18;;;;;;;4.93;3.47;;;;;;;;;;4960689;28;20455;-76
2021/09/17 06:31:43;;;;;;;5.77;4.23;;;;;;;;;;4961339;28;20219;-76
2021/09/17 06:34:08;;;;;;;5.50;3.50;;;;;;;;;;4956024;28;20190;-76
2021/09/17 06:36:33;;;;;;;6.80;3.57;;;;;;;;;;4955056;28;20187;-76
2021/09/17 06:39:01;;;;;;;5.53;3.30;;;;;;;;;;4959918;28;20195;-75
2021/09/17 06:41:27;;;;;;;3.83;3.00;;;;;;;;;;4957485;28;20551;-76
2021/09/17 06:43:53;;;;;;;4.13;3.20;;;;;;;;;;4959232;28;20533;-76
2021/09/17 06:46:18;;;;;;;3.10;2.80;;;;;;;;;;4960537;28;20198;-76
2021/09/17 06:48:43;;;;;;;5.83;3.50;;;;;;;;;;4960110;28;20209;-76
2021/09/17 06:51:08;;;;;;;5.03;3.30;;;;;;;;;;4958543;28;20187;-76
2021/09/17 06:53:34;;;;;;;5.33;2.80;;;;;;;;;;4959241;28;20199;-76
2021/09/17 06:55:59;;;;;;;3.40;2.60;;;;;;;;;;4960332;28;20179;-76
2021/09/17 06:58:31;;;;;;;4.67;3.23;;;;;;;;;;4959357;28;20199;-75
2021/09/17 07:00:56;;;;;;;4.10;3.10;;;;;;;;;;4956646;28;20266;-76
2021/09/17 07:03:21;;;;;;;4.80;2.80;;;;;;;;;;4961024;28;20509;-76
2021/09/17 07:05:46;;;;;;;3.80;3.37;;;;;;;;;;4960526;28;20183;-76
2021/09/17 07:08:12;;;;;;;5.53;3.90;;;;;;;;;;4960172;28;20208;-76
2021/09/17 07:10:38;;;;;;;5.03;4.13;;;;;;;;;;4958255;28;20186;-76
2021/09/17 07:13:03;;;;;;;3.87;3.27;;;;;;;;;;4957210;28;20218;-76
2021/09/17 07:15:29;;;;;;;5.47;4.23;;;;;;;;;;4951744;28;20476;-76
2021/09/17 07:17:54;;;;;;;4.37;3.93;;;;;;;;;;4943774;28;20202;-76
2021/09/17 07:20:19;;;;;;;7.10;4.10;;;;;;;;;;4959163;28;20187;-76
2021/09/17 07:22:45;;;;;;;4.23;3.67;;;;;;;;;;4957998;28;20198;-76
2021/09/17 07:25:10;;;;;;;3.50;3.20;;;;;;;;;;4953510;28;20686;-76
2021/09/17 07:27:36;;;;;;;4.70;3.27;;;;;;;;;;4956913;28;20214;-75
2021/09/17 07:30:01;;;;;;;4.90;3.70;;;;;;;;;;4954903;28;20206;-74
2021/09/17 07:32:26;;;;;;;3.90;3.07;;;;;;;;;;4957707;28;20229;-75
2021/09/17 07:34:52;;;;;;;3.73;3.43;;;;;;;;;;4957342;28;20210;-76
2021/09/17 07:37:17;;;;;;;4.30;3.57;;;;;;;;;;4955918;28;20198;-76
2021/09/17 07:39:43;;;;;;;3.73;2.77;;;;;;;;;;4957950;28;20270;-76
2021/09/17 07:42:08;;;;;;;5.07;2.80;;;;;;;;;;4957444;28;20213;-75
2021/09/17 07:44:34;;;;;;;4.03;2.50;;;;;;;;;;4958208;28;20186;-76
2021/09/17 07:47:01;;;;;;;2.47;1.90;;;;;;;;;;4957322;28;20676;-75
2021/09/17 07:49:26;;;;;;;4.50;2.60;;;;;;;;;;4954028;28;20446;-76
2021/09/17 07:51:51;;;;;;;3.47;2.30;;;;;;;;;;4958464;28;20469;-76
2021/09/17 07:54:17;;;;;;;3.00;2.20;;;;;;;;;;4957444;28;20228;-75
2021/09/17 07:56:42;;;;;;;2.80;2.43;;;;;;;;;;4953736;28;20179;-76
2021/09/17 07:59:07;;;;;;;3.77;1.57;;;;;;;;;;4956387;28;20243;-76
2021/09/17 08:01:32;;;;;;;2.90;2.00;;;;;;;;;;4959016;28;20194;-76
2021/09/17 08:03:57;;;;;;;3.00;1.90;;;;;;;;;;4958311;28;20204;-76
2021/09/17 08:06:23;;;;;;;3.80;1.70;;;;;;;;;;4958686;28;20566;-75
2021/09/17 08:08:48;;;;;;;4.63;1.50;;;;;;;;;;4959578;28;20525;-76
2021/09/17 08:11:13;;;;;;;3.90;1.43;;;;;;;;;;4954693;28;20357;-76
2021/09/17 08:13:38;;;;;;;2.97;1.43;;;;;;;;;;4958089;28;20328;-75
2021/09/17 08:16:04;;;;;;;1.53;1.23;;;;;;;;;;4958097;28;20194;-75
2021/09/17 08:18:29;;;;;;;1.27;1.17;;;;;;;;;;4955676;28;20202;-74
2021/09/17 08:20:57;;;;;;;1.57;1.20;;;;;;;;;;4956786;28;20175;-76
2021/09/17 08:23:23;;;;;;;1.80;0.80;;;;;;;;;;4958503;28;20253;-75
2021/09/17 08:25:54;;;;;;;2.73;1.00;;;;;;;;;;4955507;28;20465;-75
2021/09/17 08:28:20;;;;;;;0.60;0.60;;;;;;;;;;4957949;28;20582;-75
2021/09/17 08:30:45;;;;;;;1.27;0.83;;;;;;;;;;4959991;28;20462;-75
2021/09/17 08:33:11;;;;;;;1.87;0.80;;;;;;;;;;4956528;28;20203;-74
2021/09/17 08:35:36;;;;;;;1.00;0.70;;;;;;;;;;4952616;28;20566;-75
2021/09/17 08:38:01;;;;;;;0.70;0.70;;;;;;;;;;4956521;28;20203;-76
2021/09/17 08:40:28;;;;;;;1.60;0.67;;;;;;;;;;4959460;28;20194;-75
2021/09/17 08:42:59;;;;;;;3.00;0.60;;;;;;;;;;4954237;28;20712;-76
2021/09/17 08:45:24;;;;;;;2.00;1.03;;;;;;;;;;4956791;28;21230;-76
2021/09/17 08:47:52;;;;;;;0.80;0.57;;;;;;;;;;4969892;28;20467;-75
2021/09/17 08:50:18;;;;;;;0.80;0.50;;;;;;;;;;4960143;28;20195;-76
2021/09/17 08:52:44;;;;;;;0.60;0.40;;;;;;;;;;4958734;28;20481;-75
2021/09/17 08:55:09;;;;;;;4.13;0.60;;;;;;;;;;4957991;28;20446;-76
2021/09/17 08:57:35;;;;;;;1.03;0.50;;;;;;;;;;4957835;28;20209;-76
2021/09/17 09:00:00;;;;;;;1.90;0.70;;;;;;;;;;4953871;28;20194;-76
2021/09/17 09:02:28;;;;;;;1.77;0.63;;;;;;;;;;4956221;28;20190;-76
2021/09/17 09:05:00;;;;;;;1.37;0.60;;;;;;;;;;4956681;28;20182;-76
2021/09/17 09:07:29;;;;;;;1.83;0.60;;;;;;;;;;4957293;28;20464;-76
2021/09/17 09:09:54;;;;;;;1.00;0.50;;;;;;;;;;4961041;28;20523;-76
2021/09/17 09:12:22;;;;;;;2.03;0.70;;;;;;;;;;4958275;28;20936;-76
2021/09/17 09:14:47;;;;;;;3.80;0.77;;;;;;;;;;4962114;28;20198;-76
2021/09/17 09:17:13;;;;;;;2.80;1.00;;;;;;;;;;4960796;28;21483;-75
2021/09/17 09:19:38;;;;;;;0.73;0.60;;;;;;;;;;4963089;28;20186;-76
2021/09/17 09:22:03;;;;;;;0.50;0.50;;;;;;;;;;4960401;28;20571;-76
2021/09/17 09:24:29;;;;;;;1.40;0.50;;;;;;;;;;4962730;28;20262;-76
2021/09/17 09:27:15;;;;;;;0.60;0.50;;;;;;;;;;4959212;28;20221;-75
2021/09/17 09:29:42;;;;;;;2.23;0.60;;;;;;;;;;4961108;28;20441;-76
2021/09/17 09:32:08;;;;;;;2.30;0.80;;;;;;;;;;4959882;28;20478;-75
2021/09/17 09:34:47;;;;;;;1.20;0.70;;;;;;;;;;4960346;28;20627;-76
2021/09/17 09:37:12;;;;;;;1.20;0.90;;;;;;;;;;4960459;28;20234;-76
2021/09/17 09:39:50;;;;;;;0.97;0.70;;;;;;;;;;4959321;28;20459;-76
2021/09/17 09:42:18;;;;;;;1.03;0.50;;;;;;;;;;4959679;28;20183;-76
2021/09/17 09:45:03;;;;;;;0.70;0.57;;;;;;;;;;4958560;28;20492;-75
2021/09/17 09:47:33;;;;;;;0.60;0.50;;;;;;;;;;4955556;28;20458;-76
2021/09/17 09:50:11;;;;;;;1.47;0.97;;;;;;;;;;4958152;28;20947;-76
2021/09/17 09:52:36;;;;;;;2.13;0.67;;;;;;;;;;4958458;28;20466;-76
2021/09/17 09:55:03;;;;;;;2.13;0.70;;;;;;;;;;4958340;28;20870;-76
2021/09/17 09:57:29;;;;;;;1.47;0.77;;;;;;;;;;4959778;28;20198;-76
2021/09/17 09:59:58;;;;;;;1.07;0.60;;;;;;;;;;4961742;28;20407;-75
2021/09/17 10:02:24;;;;;;;1.07;0.50;;;;;;;;;;4959033;28;21019;-76
2021/09/17 10:04:50;;;;;;;0.90;0.60;;;;;;;;;;4962524;28;20434;-75
2021/09/17 10:07:17;;;;;;;0.80;0.50;;;;;;;;;;4959098;28;20959;-75
2021/09/17 10:09:43;;;;;;;1.00;0.60;;;;;;;;;;4958318;28;20194;-75
2021/09/17 10:12:10;;;;;;;2.10;0.50;;;;;;;;;;4957769;28;20480;-75
2021/09/17 10:14:36;;;;;;;1.17;0.87;;;;;;;;;;4961302;28;20182;-74
2021/09/17 10:17:05;;;;;;;4.70;0.97;;;;;;;;;;4962095;28;20434;-75
2021/09/17 10:19:30;;;;;;;3.00;0.80;;;;;;;;;;4961296;28;20402;-75
2021/09/17 10:21:59;;;;;;;1.30;0.70;;;;;;;;;;4962043;28;20895;-75
2021/09/17 10:24:25;;;;;;;1.27;0.70;;;;;;;;;;4963495;28;20214;-75
2021/09/17 10:26:57;;;;;;;3.23;0.80;;;;;;;;;;4960890;28;20458;-73
2021/09/17 10:29:33;;;;;;;0.80;0.50;;;;;;;;;;4960237;28;20175;-74
2021/09/17 10:32:00;;;;;;;1.53;0.60;;;;;;;;;;4959375;28;20545;-75
2021/09/17 10:34:28;;;;;;;0.83;0.50;;;;;;;;;;4962717;28;20421;-74
2021/09/17 10:36:54;;;;;;;1.07;0.70;;;;;;;;;;4962867;28;20478;-75
2021/09/17 10:39:20;;;;;;;2.57;0.60;;;;;;;;;;4961294;28;20458;-74
2021/09/17 10:42:18;;;;;;;0.83;0.50;;;;;;;;;;4962487;28;20273;-74
2021/09/17 10:45:14;;;;;;;3.00;0.93;;;;;;;;;;4960710;28;20191;-74
2021/09/17 10:47:39;;;;;;;2.23;0.70;;;;;;;;;;4961390;28;20469;-74
2021/09/17 10:50:05;;;;;;;2.00;0.90;;;;;;;;;;4962931;28;20461;-75
2021/09/17 10:52:38;;;;;;;0.77;0.60;;;;;;;;;;4962364;28;20210;-74
2021/09/17 10:55:03;;;;;;;1.20;0.60;;;;;;;;;;4960584;28;20434;-75
2021/09/17 10:57:29;;;;;;;2.10;0.70;;;;;;;;;;4962667;28;20438;-75
2021/09/17 10:59:54;;;;;;;0.70;0.60;;;;;;;;;;4962821;28;20222;-74
2021/09/17 11:02:38;;;;;;;1.17;0.60;;;;;;;;;;4960624;28;20182;-74
2021/09/17 11:05:16;;;;;;;4.43;0.70;;;;;;;;;;4958351;28;20198;-75
2021/09/17 11:07:42;;;;;;;2.57;0.70;;;;;;;;;;4957939;28;20453;-75
2021/09/17 11:10:21;;;;;;;2.63;0.60;;;;;;;;;;4957630;28;20457;-75
2021/09/17 11:12:46;;;;;;;1.27;0.60;;;;;;;;;;4959196;28;20197;-75
2021/09/17 11:15:13;;;;;;;1.70;0.57;;;;;;;;;;4953491;28;20947;-75
2021/09/17 11:17:40;;;;;;;2.67;1.00;;;;;;;;;;4960536;28;20203;-75
2021/09/17 11:20:06;;;;;;;2.63;0.90;;;;;;;;;;4960491;28;20455;-75
2021/09/17 11:22:45;;;;;;;2.40;0.63;;;;;;;;;;4959438;28;20481;-75
2021/09/17 11:25:11;;;;;;;1.37;0.67;;;;;;;;;;4961524;28;20426;-75
2021/09/17 11:27:40;;;;;;;4.27;0.80;;;;;;;;;;4960142;28;20500;-75
2021/09/17 11:30:08;;;;;;;1.10;0.60;;;;;;;;;;4958497;28;20182;-74
2021/09/17 11:32:33;;;;;;;1.80;0.80;;;;;;;;;;4956917;28;20553;-75
2021/09/17 11:35:06;;;;;;;2.17;0.80;;;;;;;;;;4955793;28;20530;-75
2021/09/17 11:37:31;;;;;;;2.57;0.93;;;;;;;;;;4960576;28;20294;-75
2021/09/17 11:40:02;;;;;;;0.87;0.50;;;;;;;;;;4961161;28;20520;-76
2021/09/17 11:42:28;;;;;;;2.27;0.60;;;;;;;;;;4958308;28;20191;-75
2021/09/17 11:44:53;;;;;;;1.60;0.90;;;;;;;;;;4956980;28;20501;-75
2021/09/17 11:47:22;;;;;;;1.73;0.67;;;;;;;;;;4957319;28;20194;-75
2021/09/17 11:49:47;;;;;;;1.67;0.60;;;;;;;;;;4956732;28;20336;-75
2021/09/17 11:52:17;;;;;;;1.87;1.00;;;;;;;;;;4954538;28;21074;-75
2021/09/17 11:54:54;;;;;;;2.13;0.60;;;;;;;;;;4960458;28;20222;-75
2021/09/17 11:57:19;;;;;;;2.97;0.60;;;;;;;;;;4959084;28;20438;-75
2021/09/17 11:59:45;;;;;;;0.83;0.60;;;;;;;;;;4959049;28;20457;-75
2021/09/17 12:02:28;;;;;;;1.07;0.60;;;;;;;;;;4959267;28;20191;-75
2021/09/17 12:05:01;;;;;;;1.70;0.90;;;;;;;;;;4958028;28;20261;-75
2021/09/17 12:07:27;;;;;;;1.17;0.73;;;;;;;;;;4960350;28;20457;-75
2021/09/17 12:09:53;;;;;;;1.40;0.80;;;;;;;;;;4960713;28;20434;-76
2021/09/17 12:12:22;;;;;;;2.10;0.60;;;;;;;;;;4957923;28;20213;-76
2021/09/17 12:14:51;;;;;;;1.57;0.70;;;;;;;;;;4963296;28;20230;-76
2021/09/17 12:17:17;;;;;;;1.73;0.80;;;;;;;;;;4959128;28;20519;-77
2021/09/17 12:19:58;;;;;;;2.87;1.00;;;;;;;;;;4960496;28;20515;-76
2021/09/17 12:22:38;;;;;;;1.00;0.53;;;;;;;;;;4960098;28;20199;-77
2021/09/17 12:25:06;;;;;;;2.20;0.70;;;;;;;;;;4959482;28;20469;-75
2021/09/17 12:27:31;;;;;;;1.37;0.83;;;;;;;;;;4959134;28;20457;-78
2021/09/17 12:30:02;;;;;;;1.70;0.77;;;;;;;;;;4961183;28;20434;-76
2021/09/17 12:32:27;;;;;;;1.13;0.70;;;;;;;;;;4960854;28;20202;-77
2021/09/17 12:35:05;;;;;;;1.60;0.70;;;;;;;;;;4961282;28;20510;-76
2021/09/17 12:37:30;;;;;;;0.90;0.77;;;;;;;;;;4961311;28;20217;-76
2021/09/17 12:40:11;;;;;;;0.90;0.67;;;;;;;;;;4962255;28;20814;-76
2021/09/17 12:42:36;;;;;;;4.30;0.70;;;;;;;;;;4960795;28;20261;-76
2021/09/17 12:45:02;;;;;;;2.17;0.70;;;;;;;;;;4964845;28;20518;-76
2021/09/17 12:47:28;;;;;;;3.13;1.00;;;;;;;;;;4961778;28;20237;-76
2021/09/17 12:50:11;;;;;;;1.10;0.73;;;;;;;;;;4964069;28;20553;-76
2021/09/17 12:52:37;;;;;;;2.67;0.60;;;;;;;;;;4964676;28;20224;-76
2021/09/17 12:55:05;;;;;;;2.10;0.70;;;;;;;;;;4965066;28;20944;-76
2021/09/17 12:57:31;;;;;;;1.80;0.50;;;;;;;;;;4961959;28;21415;-77
2021/09/17 13:00:06;;;;;;;0.90;0.53;;;;;;;;;;4964360;28;20414;-77
2021/09/17 13:02:32;;;;;;;1.63;0.90;;;;;;;;;;4963539;28;20840;-77
2021/09/17 13:04:58;;;;;;;0.80;0.70;;;;;;;;;;4964614;28;20422;-75
2021/09/17 13:07:23;;;;;;;1.90;0.90;;;;;;;;;;4962506;28;20195;-74
2021/09/17 13:09:48;;;;;;;1.47;0.70;;;;;;;;;;4960562;28;20423;-74
2021/09/17 13:12:13;;;;;;;3.13;0.90;;;;;;;;;;4962351;28;20632;-74
2021/09/17 13:14:39;;;;;;;0.97;0.70;;;;;;;;;;4962754;28;20168;-75
2021/09/17 13:17:04;;;;;;;0.70;0.50;;;;;;;;;;4963055;28;20226;-74
2021/09/17 13:19:29;;;;;;;2.20;0.80;;;;;;;;;;4961899;28;20175;-74
2021/09/17 13:21:54;;;;;;;2.63;0.60;;;;;;;;;;4960722;28;20178;-74
2021/09/17 13:24:20;;;;;;;0.63;0.60;;;;;;;;;;4963985;28;20186;-75
2021/09/17 13:26:45;;;;;;;1.07;0.67;;;;;;;;;;4962216;28;20258;-75
2021/09/17 13:29:10;;;;;;;5.90;0.70;;;;;;;;;;4962832;28;20223;-75
2021/09/17 13:31:36;;;;;;;0.80;0.70;;;;;;;;;;4962573;28;20175;-75
2021/09/17 13:34:01;;;;;;;0.70;0.67;;;;;;;;;;4963897;28;20202;-75
2021/09/17 13:36:26;;;;;;;1.90;0.60;;;;;;;;;;4964610;28;20210;-75
2021/09/17 13:38:51;;;;;;;0.93;0.67;;;;;;;;;;4961403;28;20269;-75
2021/09/17 13:41:17;;;;;;;1.77;0.67;;;;;;;;;;4962496;28;20178;-75
2021/09/17 13:43:42;;;;;;;0.90;0.60;;;;;;;;;;4958765;28;20182;-75
2021/09/17 13:46:07;;;;;;;1.90;0.70;;;;;;;;;;4960974;28;20179;-75
2021/09/17 13:48:32;;;;;;;0.80;0.70;;;;;;;;;;4959449;28;20206;-75
2021/09/17 13:50:58;;;;;;;1.90;0.70;;;;;;;;;;4962936;28;20194;-75
2021/09/17 13:53:23;;;;;;;1.10;0.60;;;;;;;;;;4963162;28;20206;-75
2021/09/17 13:55:49;;;;;;;1.00;0.60;;;;;;;;;;4962528;28;20174;-76
2021/09/17 13:58:15;;;;;;;0.93;0.60;;;;;;;;;;4962145;28;20198;-74
2021/09/17 14:00:40;;;;;;;1.40;0.70;;;;;;;;;;4963351;28;20433;-75
2021/09/17 14:03:05;;;;;;;2.07;0.70;;;;;;;;;;4960855;28;20190;-77
2021/09/17 14:05:30;;;;;;;0.50;0.50;;;;;;;;;;4958150;28;20263;-73
2021/09/17 14:07:56;;;;;;;1.20;0.60;;;;;;;;;;4959471;28;20206;-75
2021/09/17 14:10:21;;;;;;;0.60;0.60;;;;;;;;;;4961542;28;20633;-81
2021/09/17 14:12:47;;;;;;;1.23;0.60;;;;;;;;;;4961622;28;20654;-79
2021/09/17 14:15:12;;;;;;;1.43;0.60;;;;;;;;;;4962217;28;20179;-78
2021/09/17 14:17:39;;;;;;;1.43;0.60;;;;;;;;;;4962437;28;20615;-79
2021/09/17 14:20:05;;;;;;;2.20;0.60;;;;;;;;;;4962215;28;20847;-79
2021/09/17 14:22:30;;;;;;;1.77;0.80;;;;;;;;;;4960276;28;20460;-80
2021/09/17 14:24:56;;;;;;;1.90;0.70;;;;;;;;;;4957764;28;20456;-78
2021/09/17 14:27:21;;;;;;;0.80;0.70;;;;;;;;;;4959090;28;20293;-80
2021/09/17 14:29:48;;;;;;;0.80;0.60;;;;;;;;;;4960340;28;20182;-80
2021/09/17 14:32:14;;;;;;;1.10;0.60;;;;;;;;;;4958363;28;20217;-79
2021/09/17 14:34:39;;;;;;;1.47;0.70;;;;;;;;;;4958073;28;20437;-80
2021/09/17 14:37:04;;;;;;;1.37;0.70;;;;;;;;;;4962365;28;20182;-79
2021/09/17 14:39:29;;;;;;;2.50;0.60;;;;;;;;;;4959715;28;20222;-79